Time;durP1;ratioP1;P1;durP2;ratioP2;P2;SDS_P1;SDS_P2;PMS_P1;PMS_P2;Temp;Humidity;BMP_temperature;BMP_pressure;BME280_temperature;BME280_humidity;BME280_pressure;Samples;Min_cycle;Max_cycle;Signal;HPM_P1;HPM_P2
2023/01/09 00:00:40;;;;;;;20.10;16.97;;;5.20;99.90;;;;;;5073412;28;20213;-48
2023/01/09 00:03:07;;;;;;;22.80;17.37;;;5.20;99.90;;;;;;5067612;28;20229;-50
2023/01/09 00:05:34;;;;;;;20.60;17.40;;;5.20;99.90;;;;;;5070250;28;20202;-49
2023/01/09 00:08:02;;;;;;;20.53;16.03;;;5.20;99.90;;;;;;5066701;28;20199;-49
2023/01/09 00:10:29;;;;;;;18.77;16.13;;;5.20;99.90;;;;;;5067375;28;20201;-50
2023/01/09 00:12:56;;;;;;;22.63;18.07;;;5.20;99.90;;;;;;5073202;28;20223;-50
2023/01/09 00:15:23;;;;;;;18.47;16.50;;;5.10;99.90;;;;;;5073570;28;20207;-49
2023/01/09 00:17:51;;;;;;;22.83;16.87;;;5.10;99.90;;;;;;5072356;28;20230;-49
2023/01/09 00:20:18;;;;;;;22.67;18.00;;;5.10;99.90;;;;;;5071177;28;20203;-48
2023/01/09 00:22:45;;;;;;;20.10;16.63;;;5.10;99.90;;;;;;5072927;28;20728;-50
2023/01/09 00:25:13;;;;;;;21.37;18.00;;;5.10;99.90;;;;;;5066248;28;20211;-49
2023/01/09 00:27:40;;;;;;;23.90;18.73;;;5.10;99.90;;;;;;5070845;28;20252;-48
2023/01/09 00:30:08;;;;;;;22.17;17.90;;;5.10;99.90;;;;;;5072318;28;20200;-47
2023/01/09 00:32:35;;;;;;;21.97;18.30;;;5.10;99.90;;;;;;5071960;28;20221;-50
2023/01/09 00:35:04;;;;;;;22.48;19.80;;;5.20;99.90;;;;;;5064946;28;20458;-48
2023/01/09 00:37:31;;;;;;;22.10;19.33;;;5.20;99.90;;;;;;5071202;28;20717;-49
2023/01/09 00:39:58;;;;;;;20.30;17.47;;;5.30;99.90;;;;;;5068511;28;20201;-50
2023/01/09 00:42:28;;;;;;;20.60;17.33;;;5.30;99.90;;;;;;5067993;28;20225;-47
2023/01/09 00:45:00;;;;;;;18.93;16.53;;;5.30;99.90;;;;;;5069363;28;20578;-49
2023/01/09 00:47:35;;;;;;;20.13;16.27;;;5.30;99.90;;;;;;5068283;28;20204;-49
2023/01/09 00:50:08;;;;;;;21.20;16.97;;;5.40;99.90;;;;;;5072261;28;20282;-49
2023/01/09 00:52:37;;;;;;;22.70;16.97;;;5.40;99.90;;;;;;5072307;28;20232;-49
2023/01/09 00:55:05;;;;;;;18.37;15.63;;;5.30;99.90;;;;;;5071932;28;20193;-50
2023/01/09 00:57:33;;;;;;;17.83;15.93;;;5.40;99.90;;;;;;5069228;28;20229;-49
2023/01/09 01:00:00;;;;;;;21.20;17.17;;;5.50;99.90;;;;;;5071446;28;20198;-50
2023/01/09 01:02:27;;;;;;;20.93;18.17;;;5.50;99.90;;;;;;5071033;28;20224;-48
2023/01/09 01:07:41;;;;;;;22.07;18.30;;;5.60;99.90;;;;;;5070355;28;20210;-49
2023/01/09 01:10:12;;;;;;;24.90;18.70;;;5.50;99.90;;;;;;5071870;28;20211;-49
2023/01/09 01:12:40;;;;;;;22.87;17.47;;;5.40;99.90;;;;;;5067760;28;20213;-47
2023/01/09 01:15:08;;;;;;;21.17;17.87;;;5.30;99.90;;;;;;5061939;28;20929;-49
2023/01/09 01:17:36;;;;;;;21.07;17.47;;;5.30;99.90;;;;;;5067809;28;20644;-48
2023/01/09 01:20:04;;;;;;;20.03;17.83;;;5.30;99.90;;;;;;5063849;28;20300;-49
2023/01/09 01:22:32;;;;;;;23.80;18.43;;;5.20;99.90;;;;;;5065828;28;20723;-48
2023/01/09 01:25:00;;;;;;;20.80;18.47;;;5.20;99.90;;;;;;5067394;28;20244;-50
2023/01/09 01:27:28;;;;;;;23.97;18.77;;;5.20;99.90;;;;;;5070529;28;20192;-50
2023/01/09 01:29:55;;;;;;;22.97;17.63;;;5.10;99.90;;;;;;5076747;28;20196;-49
2023/01/09 01:32:23;;;;;;;22.00;18.93;;;5.10;99.90;;;;;;5076198;28;20222;-49
2023/01/09 01:34:50;;;;;;;24.47;19.90;;;5.20;99.90;;;;;;5076997;28;20194;-50
2023/01/09 01:37:17;;;;;;;23.50;19.73;;;5.30;99.90;;;;;;5078733;28;20270;-49
2023/01/09 01:39:44;;;;;;;23.87;19.63;;;5.40;99.90;;;;;;5076639;28;20208;-49
2023/01/09 01:42:13;;;;;;;27.27;20.00;;;5.30;99.90;;;;;;5075549;28;20232;-50
2023/01/09 01:45:01;;;;;;;25.47;20.40;;;5.40;99.90;;;;;;5071457;28;20262;-49
2023/01/09 01:47:34;;;;;;;25.33;21.13;;;5.40;99.90;;;;;;5060475;28;20199;-51
2023/01/09 01:50:04;;;;;;;22.30;19.10;;;5.40;99.90;;;;;;5070589;28;20205;-50
2023/01/09 01:52:35;;;;;;;22.40;19.73;;;5.40;99.90;;;;;;5071084;28;20232;-50
2023/01/09 01:55:03;;;;;;;23.93;19.60;;;5.30;99.90;;;;;;5071287;28;20199;-49
2023/01/09 01:57:33;;;;;;;22.20;19.77;;;5.30;99.90;;;;;;5071184;28;20600;-49
2023/01/09 02:00:02;;;;;;;23.83;20.20;;;5.30;99.90;;;;;;5070298;28;20266;-48
2023/01/09 02:02:32;;;;;;;21.73;19.30;;;5.30;99.90;;;;;;5063428;28;20224;-49
2023/01/09 02:05:01;;;;;;;22.83;18.40;;;5.30;99.90;;;;;;5063142;28;20586;-48
2023/01/09 02:07:29;;;;;;;25.57;20.40;;;5.30;99.90;;;;;;5071150;28;20200;-50
2023/01/09 02:09:57;;;;;;;27.27;20.77;;;5.30;99.90;;;;;;5071327;28;20632;-49
2023/01/09 02:12:25;;;;;;;24.67;20.00;;;5.20;99.90;;;;;;5062741;28;20303;-48
2023/01/09 02:15:02;;;;;;;24.77;21.00;;;5.20;99.90;;;;;;5068728;28;20201;-48
2023/01/09 02:17:57;;;;;;;23.43;19.93;;;5.20;99.90;;;;;;5069665;28;20214;-49
2023/01/09 02:20:52;;;;;;;24.10;19.67;;;5.20;99.90;;;;;;5066659;28;20202;-50
2023/01/09 02:24:03;;;;;;;24.57;20.13;;;5.20;99.90;;;;;;5050820;28;20228;-49
2023/01/09 02:26:56;;;;;;;23.67;18.83;;;5.30;99.90;;;;;;5066420;28;20195;-48
2023/01/09 02:30:08;;;;;;;22.20;18.70;;;5.20;99.90;;;;;;5066153;28;20528;-49
2023/01/09 02:32:51;;;;;;;23.80;18.43;;;5.40;99.90;;;;;;5073769;28;20765;-48
2023/01/09 02:35:30;;;;;;;23.07;19.20;;;5.30;99.90;;;;;;5074844;28;20211;-49
2023/01/09 02:38:06;;;;;;;23.83;20.00;;;5.20;99.90;;;;;;5064376;28;20219;-48
2023/01/09 02:40:39;;;;;;;24.07;19.83;;;5.30;99.90;;;;;;5064732;28;20200;-49
2023/01/09 02:43:08;;;;;;;22.77;19.10;;;5.20;99.90;;;;;;5073748;28;20261;-49
2023/01/09 02:45:35;;;;;;;22.27;19.67;;;5.20;99.90;;;;;;5066017;28;20670;-48
2023/01/09 02:48:04;;;;;;;24.17;19.13;;;5.20;99.90;;;;;;5074794;28;20298;-48
2023/01/09 02:50:39;;;;;;;25.37;20.13;;;5.20;99.90;;;;;;5073704;28;20201;-49
2023/01/09 02:53:46;;;;;;;27.03;19.93;;;5.20;99.90;;;;;;5064592;28;20230;-47
2023/01/09 02:56:32;;;;;;;22.10;18.57;;;5.20;99.90;;;;;;5073611;28;20202;-48
2023/01/09 02:59:15;;;;;;;24.77;20.70;;;5.20;99.90;;;;;;5054427;28;20227;-48
2023/01/09 03:01:51;;;;;;;26.67;20.43;;;5.20;99.90;;;;;;5054374;28;20203;-49
2023/01/09 03:04:37;;;;;;;23.13;19.30;;;5.30;99.90;;;;;;5070601;28;20303;-49
2023/01/09 03:07:13;;;;;;;19.50;15.73;;;5.30;99.90;;;;;;5073101;28;20205;-49
2023/01/09 03:09:42;;;;;;;16.40;13.93;;;5.40;99.90;;;;;;5073302;28;20206;-48
2023/01/09 03:12:15;;;;;;;12.97;11.60;;;5.60;99.90;;;;;;5074131;28;20231;-49
2023/01/09 03:14:46;;;;;;;13.30;11.47;;;5.70;99.90;;;;;;5073253;28;20618;-51
2023/01/09 03:17:18;;;;;;;7.43;6.20;;;5.70;99.90;;;;;;5073888;28;20201;-49
2023/01/09 03:19:49;;;;;;;9.30;7.03;;;5.90;99.90;;;;;;5074112;28;20672;-48
2023/01/09 03:22:16;;;;;;;7.43;5.83;;;6.10;99.90;;;;;;5073953;28;20723;-49
2023/01/09 03:24:43;;;;;;;17.00;14.23;;;6.10;99.90;;;;;;5068570;28;20279;-49
2023/01/09 03:27:11;;;;;;;18.37;14.63;;;6.10;99.90;;;;;;5072007;28;20208;-48
2023/01/09 03:29:38;;;;;;;18.67;14.10;;;6.10;99.90;;;;;;5073992;28;20202;-48
2023/01/09 03:32:06;;;;;;;18.20;15.17;;;6.00;99.90;;;;;;5064644;28;20292;-49
2023/01/09 03:34:33;;;;;;;18.33;15.77;;;5.90;99.90;;;;;;5072798;28;20205;-50
2023/01/09 03:37:04;;;;;;;17.23;15.37;;;5.80;99.90;;;;;;5073434;28;20198;-48
2023/01/09 03:39:32;;;;;;;18.43;14.93;;;5.80;99.90;;;;;;5072585;28;20280;-48
2023/01/09 03:41:59;;;;;;;16.87;14.73;;;5.70;99.90;;;;;;5073491;28;20278;-48
2023/01/09 03:44:26;;;;;;;17.63;15.77;;;5.70;99.90;;;;;;5071685;28;20212;-49
2023/01/09 03:46:53;;;;;;;18.00;16.03;;;5.60;99.90;;;;;;5064921;28;20239;-49
2023/01/09 03:49:20;;;;;;;19.03;15.60;;;5.60;99.90;;;;;;5071035;28;20208;-49
2023/01/09 03:51:47;;;;;;;18.73;15.60;;;5.50;99.90;;;;;;5070142;28;20525;-47
2023/01/09 03:54:15;;;;;;;17.47;15.57;;;5.50;99.90;;;;;;5067598;28;20194;-51
2023/01/09 03:56:42;;;;;;;18.70;15.73;;;5.50;99.90;;;;;;5064344;28;20202;-48
2023/01/09 03:59:09;;;;;;;16.33;13.53;;;5.50;99.90;;;;;;5072353;28;20231;-49
2023/01/09 04:01:36;;;;;;;6.23;5.63;;;5.60;99.90;;;;;;5064895;28;20621;-49
2023/01/09 04:04:03;;;;;;;1.73;1.63;;;5.70;99.90;;;;;;5067117;28;20201;-48
2023/01/09 04:06:30;;;;;;;0.60;0.60;;;5.80;99.90;;;;;;5067302;28;20207;-51
2023/01/09 04:08:57;;;;;;;0.10;0.10;;;5.90;99.90;;;;;;5072895;28;20191;-48
2023/01/09 04:11:26;;;;;;;0.03;0.03;;;6.10;99.90;;;;;;5073326;28;20256;-48
2023/01/09 04:13:53;;;;;;;0.20;0.00;;;6.10;99.90;;;;;;5073256;28;20208;-48
2023/01/09 04:16:20;;;;;;;0.00;0.00;;;6.10;99.90;;;;;;5071036;28;20204;-48
2023/01/09 04:18:47;;;;;;;1.07;0.00;;;6.00;99.90;;;;;;5064652;28;20844;-48
2023/01/09 04:21:14;;;;;;;0.00;0.00;;;5.90;99.90;;;;;;5071566;28;20197;-47
2023/01/09 04:23:40;;;;;;;0.00;0.00;;;5.90;99.90;;;;;;5064646;28;20232;-49
2023/01/09 04:26:07;;;;;;;0.00;0.00;;;5.90;99.90;;;;;;5072526;28;20195;-47
2023/01/09 04:28:36;;;;;;;0.00;0.00;;;5.80;99.90;;;;;;5062185;28;20196;-49
2023/01/09 04:31:04;;;;;;;0.00;0.00;;;5.80;99.90;;;;;;5072648;28;20277;-48
2023/01/09 04:33:31;;;;;;;0.33;0.00;;;5.70;99.90;;;;;;5070109;28;20217;-48
2023/01/09 04:35:58;;;;;;;0.77;0.00;;;5.70;99.90;;;;;;5073537;28;20194;-48
2023/01/09 04:38:25;;;;;;;0.00;0.00;;;5.70;99.90;;;;;;5074321;28;20223;-48
2023/01/09 04:40:53;;;;;;;0.00;0.00;;;5.60;99.90;;;;;;5074397;28;20265;-55
2023/01/09 04:43:19;;;;;;;0.00;0.00;;;5.60;99.90;;;;;;5064537;28;20255;-48
2023/01/09 04:45:48;;;;;;;0.00;0.00;;;5.60;99.90;;;;;;5073224;28;20207;-50
2023/01/09 04:48:15;;;;;;;0.20;0.20;;;5.60;99.90;;;;;;5072895;28;20206;-50
2023/01/09 04:50:42;;;;;;;0.20;0.00;;;5.60;99.90;;;;;;5073187;28;20200;-49
2023/01/09 04:53:09;;;;;;;0.00;0.00;;;5.60;99.90;;;;;;5073609;28;20732;-48
2023/01/09 04:55:36;;;;;;;0.60;0.60;;;5.60;99.90;;;;;;5063378;28;20261;-49
2023/01/09 04:58:03;;;;;;;0.00;0.00;;;5.70;99.90;;;;;;5073041;28;20227;-48
2023/01/09 05:00:30;;;;;;;0.20;0.00;;;5.80;99.90;;;;;;5073210;28;20742;-48
2023/01/09 05:02:58;;;;;;;0.10;0.00;;;5.80;99.90;;;;;;5066305;28;20308;-48
2023/01/09 05:05:25;;;;;;;0.20;0.00;;;5.80;99.90;;;;;;5072408;28;20215;-48
2023/01/09 05:07:52;;;;;;;0.00;0.00;;;5.80;99.90;;;;;;5070401;28;20688;-49
2023/01/09 05:10:20;;;;;;;0.00;0.00;;;5.80;99.90;;;;;;5071919;28;20214;-49
2023/01/09 05:12:46;;;;;;;1.17;0.00;;;5.80;99.90;;;;;;5072629;28;20218;-48
2023/01/09 05:15:14;;;;;;;0.10;0.00;;;5.70;99.90;;;;;;5063728;28;20563;-48
2023/01/09 05:17:40;;;;;;;0.10;0.10;;;5.70;99.90;;;;;;5072769;28;20349;-49
2023/01/09 05:20:10;;;;;;;0.93;0.03;;;5.70;99.90;;;;;;5070842;28;20682;-49
2023/01/09 05:22:37;;;;;;;0.20;0.10;;;5.80;99.90;;;;;;5071598;28;20219;-49
2023/01/09 05:25:05;;;;;;;1.20;0.13;;;5.90;99.90;;;;;;5072303;28;20201;-49
2023/01/09 05:27:32;;;;;;;0.00;0.00;;;5.90;99.90;;;;;;5070872;28;20229;-48
2023/01/09 05:29:59;;;;;;;0.10;0.10;;;6.00;99.90;;;;;;5071201;28;20199;-49
2023/01/09 05:32:26;;;;;;;0.10;0.00;;;6.00;99.90;;;;;;5062809;28;20246;-48
2023/01/09 05:34:53;;;;;;;0.00;0.00;;;6.00;99.90;;;;;;5069259;28;20207;-49
2023/01/09 05:37:22;;;;;;;0.00;0.00;;;6.00;99.90;;;;;;5069793;28;20208;-48
2023/01/09 05:39:49;;;;;;;0.00;0.00;;;5.90;99.90;;;;;;5070495;28;20223;-48
2023/01/09 05:42:16;;;;;;;0.30;0.10;;;5.90;99.90;;;;;;5071325;28;20707;-48
2023/01/09 05:44:43;;;;;;;0.30;0.00;;;6.00;99.90;;;;;;5071875;28;20211;-48
2023/01/09 05:47:10;;;;;;;0.30;0.00;;;6.00;99.90;;;;;;5071561;28;20208;-49
2023/01/09 05:49:37;;;;;;;0.00;0.00;;;6.00;99.90;;;;;;5068421;28;20223;-49
2023/01/09 05:52:07;;;;;;;0.00;0.00;;;5.90;99.90;;;;;;5094456;22;20230;-52
2023/01/09 05:54:36;;;;;;;0.00;0.00;;;5.80;99.90;;;;;;5071737;28;20265;-52
2023/01/09 05:57:03;;;;;;;0.00;0.00;;;5.80;99.90;;;;;;5071354;28;20258;-49
2023/01/09 05:59:30;;;;;;;0.30;0.00;;;5.70;99.90;;;;;;5064961;28;20220;-50
2023/01/09 06:01:57;;;;;;;0.97;0.23;;;5.60;99.90;;;;;;5071264;28;20194;-49
2023/01/09 06:04:28;;;;;;;0.00;0.00;;;5.50;99.90;;;;;;5071678;28;20203;-50
2023/01/09 06:06:55;;;;;;;0.40;0.00;;;5.60;99.90;;;;;;5070709;28;20207;-50
2023/01/09 06:09:22;;;;;;;0.10;0.10;;;5.60;99.90;;;;;;5069552;28;20218;-50
2023/01/09 06:11:51;;;;;;;0.10;0.10;;;5.60;99.90;;;;;;5071615;28;20203;-50
2023/01/09 06:14:18;;;;;;;0.00;0.00;;;5.70;99.90;;;;;;5071695;28;20221;-50
2023/01/09 06:16:45;;;;;;;0.00;0.00;;;5.70;99.90;;;;;;5071301;28;20207;-50
2023/01/09 06:19:12;;;;;;;0.00;0.00;;;5.70;99.90;;;;;;5071272;28;20276;-50
2023/01/09 06:21:39;;;;;;;0.20;0.10;;;5.70;99.90;;;;;;5071683;28;20202;-51
2023/01/09 06:24:07;;;;;;;0.00;0.00;;;5.70;99.90;;;;;;5071394;28;20272;-50
2023/01/09 06:26:34;;;;;;;0.00;0.00;;;5.60;99.90;;;;;;5070062;28;20206;-50
2023/01/09 06:29:02;;;;;;;0.00;0.00;;;5.50;99.90;;;;;;5070254;28;20658;-50
2023/01/09 06:31:29;;;;;;;4.13;0.30;;;5.40;99.90;;;;;;5071224;28;20200;-50
2023/01/09 06:33:56;;;;;;;0.00;0.00;;;5.40;99.90;;;;;;5066369;28;20230;-50
2023/01/09 06:36:23;;;;;;;0.10;0.00;;;5.40;99.90;;;;;;5071163;28;20207;-50
2023/01/09 06:38:50;;;;;;;0.20;0.00;;;5.50;99.90;;;;;;5071434;28;20222;-50
2023/01/09 06:41:17;;;;;;;0.10;0.00;;;5.50;99.90;;;;;;5069487;28;20256;-51
2023/01/09 06:43:45;;;;;;;0.83;0.00;;;5.40;99.90;;;;;;5068887;28;20219;-50
2023/01/09 06:46:13;;;;;;;0.30;0.20;;;5.40;99.90;;;;;;5064106;28;20210;-50
2023/01/09 06:48:40;;;;;;;1.03;0.10;;;5.40;99.90;;;;;;5062203;28;20224;-50
2023/01/09 06:51:11;;;;;;;0.00;0.00;;;5.30;99.90;;;;;;5064675;28;20203;-51
2023/01/09 06:53:38;;;;;;;0.60;0.40;;;5.30;99.90;;;;;;5071050;28;20654;-50
2023/01/09 06:56:06;;;;;;;0.40;0.40;;;5.20;99.90;;;;;;5071020;28;20254;-50
2023/01/09 06:58:33;;;;;;;0.50;0.33;;;5.20;99.90;;;;;;5070919;28;20224;-50
2023/01/09 07:01:00;;;;;;;1.17;1.00;;;5.10;99.90;;;;;;5071267;28;20202;-50
2023/01/09 07:03:28;;;;;;;0.73;0.70;;;5.10;99.90;;;;;;5066759;28;20312;-50
2023/01/09 07:05:55;;;;;;;0.47;0.47;;;5.00;99.90;;;;;;5070617;28;20256;-50
2023/01/09 07:08:22;;;;;;;0.97;0.73;;;5.00;99.90;;;;;;5070800;28;20198;-50
2023/01/09 07:10:49;;;;;;;0.60;0.50;;;5.00;99.90;;;;;;5068181;28;20204;-51
2023/01/09 07:13:16;;;;;;;0.70;0.70;;;5.10;99.90;;;;;;5070648;28;20240;-50
2023/01/09 07:15:43;;;;;;;0.70;0.70;;;5.10;99.90;;;;;;5071089;28;20210;-50
2023/01/09 07:18:10;;;;;;;2.23;0.70;;;5.10;99.90;;;;;;5073061;28;20202;-50
2023/01/09 07:20:40;;;;;;;1.63;0.53;;;5.10;99.90;;;;;;5074602;28;20576;-51
2023/01/09 07:23:07;;;;;;;0.80;0.53;;;5.10;99.90;;;;;;5074547;28;20260;-50
2023/01/09 07:25:34;;;;;;;2.37;1.07;;;5.00;99.90;;;;;;5074271;28;20561;-50
2023/01/09 07:28:01;;;;;;;2.20;1.20;;;4.90;99.90;;;;;;5074232;28;20261;-50
2023/01/09 07:30:28;;;;;;;2.03;0.70;;;4.90;99.90;;;;;;5072497;28;20197;-50
2023/01/09 07:32:55;;;;;;;0.87;0.87;;;4.80;99.90;;;;;;5074014;28;20216;-50
2023/01/09 07:35:22;;;;;;;0.83;0.67;;;4.80;99.90;;;;;;5074540;28;20201;-50
2023/01/09 07:37:51;;;;;;;0.53;0.53;;;4.80;99.90;;;;;;5074218;28;20278;-50
2023/01/09 07:40:18;;;;;;;0.60;0.60;;;4.70;99.90;;;;;;5073961;28;20219;-50
2023/01/09 07:42:45;;;;;;;4.43;0.70;;;4.70;99.90;;;;;;5074094;28;20288;-49
2023/01/09 07:45:12;;;;;;;1.33;1.23;;;4.70;99.90;;;;;;5074108;28;20252;-51
2023/01/09 07:47:40;;;;;;;0.67;0.67;;;4.70;99.90;;;;;;5072935;28;20670;-49
2023/01/09 07:50:09;;;;;;;2.40;2.23;;;4.70;99.90;;;;;;5073945;28;20722;-51
2023/01/09 07:52:35;;;;;;;2.63;1.93;;;4.70;99.90;;;;;;5073842;28;20277;-50
2023/01/09 07:55:04;;;;;;;9.17;3.63;;;4.80;99.90;;;;;;5073761;28;20249;-50
2023/01/09 07:57:31;;;;;;;4.43;3.60;;;4.90;99.90;;;;;;5062783;28;20270;-50
2023/01/09 07:59:59;;;;;;;8.17;7.37;;;5.00;99.90;;;;;;5053995;28;20223;-51
2023/01/09 08:02:27;;;;;;;7.87;7.03;;;5.00;99.90;;;;;;5053891;28;20273;-51
2023/01/09 08:04:54;;;;;;;7.97;6.63;;;5.00;99.90;;;;;;5070041;28;20286;-51
2023/01/09 08:07:21;;;;;;;5.83;5.27;;;5.10;99.90;;;;;;5069994;28;20258;-49
2023/01/09 08:09:47;;;;;;;5.77;5.13;;;5.10;99.90;;;;;;5066060;28;20611;-50
2023/01/09 08:12:16;;;;;;;3.63;3.33;;;5.10;99.90;;;;;;5071349;28;20705;-51
2023/01/09 08:14:43;;;;;;;2.90;2.70;;;5.20;99.90;;;;;;5068931;28;20292;-50
2023/01/09 08:17:10;;;;;;;3.17;1.83;;;5.30;99.90;;;;;;5073590;28;20262;-51
2023/01/09 08:19:37;;;;;;;2.60;1.10;;;5.30;99.90;;;;;;5073264;28;20223;-50
2023/01/09 08:22:04;;;;;;;1.23;0.40;;;5.40;99.90;;;;;;5072066;28;20199;-50
2023/01/09 08:24:31;;;;;;;0.20;0.20;;;5.50;99.90;;;;;;5073455;28;20205;-49
2023/01/09 08:26:58;;;;;;;1.27;0.30;;;5.70;99.90;;;;;;5073245;28;20208;-50
2023/01/09 08:29:27;;;;;;;0.30;0.20;;;5.80;99.90;;;;;;5072654;28;20203;-51
2023/01/09 08:31:54;;;;;;;0.40;0.20;;;5.90;99.90;;;;;;5073002;28;20201;-50
2023/01/09 08:34:22;;;;;;;0.67;0.57;;;6.00;99.90;;;;;;5073164;28;20206;-50
2023/01/09 08:36:49;;;;;;;0.30;0.30;;;6.10;99.90;;;;;;5072040;28;20263;-50
2023/01/09 08:39:16;;;;;;;0.77;0.30;;;6.30;99.90;;;;;;5073037;28;20219;-50
2023/01/09 08:47:14;;;;;;;2.77;0.30;;;6.40;99.90;;;;;;5072924;28;20680;-50
2023/01/09 08:49:41;;;;;;;3.73;0.40;;;6.30;99.90;;;;;;5072988;28;20275;-51
2023/01/09 08:52:08;;;;;;;0.20;0.20;;;6.40;99.90;;;;;;5073980;28;20276;-51
2023/01/09 08:54:37;;;;;;;0.67;0.23;;;6.30;99.90;;;;;;5073014;28;20207;-51
2023/01/09 08:57:08;;;;;;;0.40;0.20;;;6.40;99.90;;;;;;5068422;28;20206;-50
2023/01/09 08:59:36;;;;;;;0.20;0.20;;;6.50;99.90;;;;;;5070254;28;20629;-51
2023/01/09 09:02:03;;;;;;;0.20;0.20;;;6.60;99.90;;;;;;5070933;28;20292;-51
2023/01/09 09:04:30;;;;;;;0.10;0.10;;;6.60;99.90;;;;;;5072558;28;20203;-51
2023/01/09 09:06:57;;;;;;;1.27;0.20;;;6.80;99.90;;;;;;5072241;28;20204;-51
2023/01/09 09:09:25;;;;;;;0.10;0.10;;;6.80;99.90;;;;;;5072650;28;20274;-51
2023/01/09 09:11:52;;;;;;;0.60;0.10;;;6.90;99.90;;;;;;5072310;28;20205;-51
2023/01/09 09:17:04;;;;;;;0.17;0.10;;;7.00;99.90;;;;;;5070221;28;20276;-51
2023/01/09 09:19:32;;;;;;;0.20;0.20;;;7.00;99.90;;;;;;5065700;28;20215;-50
2023/01/09 09:21:59;;;;;;;0.37;0.23;;;7.00;99.90;;;;;;5071933;28;20191;-51
2023/01/09 09:24:26;;;;;;;0.10;0.10;;;7.10;99.90;;;;;;5072058;28;20214;-51
2023/01/09 09:26:53;;;;;;;2.27;1.17;;;7.10;99.90;;;;;;5071789;28;20610;-51
2023/01/09 09:29:20;;;;;;;1.40;0.67;;;7.20;99.90;;;;;;5070560;28;20730;-51
2023/01/09 09:31:47;;;;;;;0.50;0.40;;;7.30;99.90;;;;;;5063634;28;20229;-51
2023/01/09 09:34:15;;;;;;;1.15;0.40;;;7.40;99.90;;;;;;5070816;28;20444;-51
2023/01/09 09:36:42;;;;;;;1.50;0.63;;;7.60;99.90;;;;;;5071899;28;20626;-51
2023/01/09 09:39:09;;;;;;;0.60;0.60;;;7.70;99.90;;;;;;5071915;28;20219;-51
2023/01/09 09:45:00;;;;;;;0.50;0.47;;;7.80;99.90;;;;;;5071345;28;20201;-51
2023/01/09 09:47:44;;;;;;;0.60;0.60;;;7.90;99.90;;;;;;5067547;28;20244;-51
2023/01/09 09:50:26;;;;;;;0.87;0.87;;;8.00;99.90;;;;;;5052104;28;20294;-51
2023/01/09 09:52:59;;;;;;;0.50;0.50;;;8.00;99.90;;;;;;5051776;28;20337;-50
2023/01/09 09:55:31;;;;;;;1.13;0.50;;;7.90;99.90;;;;;;5051916;28;20203;-51
2023/01/09 09:58:01;;;;;;;0.37;0.20;;;7.90;99.90;;;;;;5065406;28;20211;-51
2023/01/09 10:00:29;;;;;;;0.30;0.10;;;8.00;99.90;;;;;;5071640;28;20708;-51
2023/01/09 10:03:01;;;;;;;1.50;0.20;;;8.00;99.90;;;;;;5068589;28;20250;-51
2023/01/09 10:05:31;;;;;;;0.83;0.20;;;8.20;99.90;;;;;;5066249;28;20207;-51
2023/01/09 10:08:05;;;;;;;0.40;0.10;;;8.30;99.90;;;;;;5063685;28;20264;-51
2023/01/09 10:10:38;;;;;;;0.40;0.40;;;8.40;99.90;;;;;;5070007;28;20660;-51
2023/01/09 10:15:56;;;;;;;0.10;0.10;;;8.70;99.90;;;;;;5068878;28;20580;-51
2023/01/09 10:18:32;;;;;;;0.77;0.10;;;8.70;99.90;;;;;;5069250;28;20665;-51
2023/01/09 10:21:06;;;;;;;0.27;0.10;;;8.50;99.90;;;;;;5067763;28;20222;-51
2023/01/09 10:23:59;;;;;;;0.10;0.10;;;8.50;99.90;;;;;;5070283;28;20223;-52
2023/01/09 10:26:36;;;;;;;1.17;0.20;;;8.40;99.90;;;;;;5066462;28;20229;-51
2023/01/09 10:29:15;;;;;;;0.30;0.30;;;8.30;99.90;;;;;;5069226;28;20204;-51
2023/01/09 10:31:54;;;;;;;0.47;0.47;;;8.30;99.90;;;;;;5064783;28;20203;-51
2023/01/09 10:34:32;;;;;;;0.30;0.10;;;8.30;99.90;;;;;;5067298;28;20205;-51
2023/01/09 10:37:10;;;;;;;0.10;0.10;;;8.30;99.90;;;;;;5063183;28;20195;-51
2023/01/09 10:39:42;;;;;;;0.23;0.20;;;8.30;99.90;;;;;;5069756;28;20231;-51
2023/01/09 10:42:18;;;;;;;0.30;0.30;;;8.30;99.90;;;;;;5071203;28;20197;-51
2023/01/09 10:44:54;;;;;;;0.10;0.10;;;8.40;99.90;;;;;;5067911;28;20209;-51
2023/01/09 10:47:25;;;;;;;0.20;0.20;;;8.40;99.90;;;;;;5065514;28;20561;-51
2023/01/09 10:49:53;;;;;;;4.20;0.93;;;8.50;99.90;;;;;;5068811;28;20688;-50
2023/01/09 10:52:28;;;;;;;0.60;0.60;;;8.50;99.90;;;;;;5070971;28;20500;-51
2023/01/09 10:54:57;;;;;;;1.07;0.43;;;8.60;99.90;;;;;;5073344;28;20203;-51
2023/01/09 10:57:38;;;;;;;0.50;0.33;;;8.60;99.90;;;;;;5073162;28;20214;-51
2023/01/09 11:00:07;;;;;;;2.00;0.50;;;8.70;99.90;;;;;;5066200;28;20297;-51
2023/01/09 11:02:35;;;;;;;0.47;0.40;;;8.80;99.90;;;;;;5070520;28;20223;-51
2023/01/09 11:05:02;;;;;;;0.30;0.30;;;8.80;99.90;;;;;;5073504;28;20413;-51
2023/01/09 11:07:34;;;;;;;1.17;0.30;;;8.90;99.90;;;;;;5073924;28;20202;-51
2023/01/09 11:10:04;;;;;;;1.07;0.40;;;8.80;99.90;;;;;;5073622;28;20206;-51
2023/01/09 11:12:33;;;;;;;0.20;0.20;;;8.80;99.90;;;;;;5073953;28;20265;-51
2023/01/09 11:15:30;;;;;;;0.20;0.20;;;8.70;99.90;;;;;;5065863;28;20269;-51
2023/01/09 11:18:23;;;;;;;2.03;0.77;;;8.70;99.90;;;;;;5066577;28;20260;-50
2023/01/09 11:20:51;;;;;;;1.63;0.50;;;8.80;99.90;;;;;;5074707;28;20660;-51
2023/01/09 11:23:31;;;;;;;0.43;0.43;;;8.90;99.90;;;;;;5072171;28;20231;-50
2023/01/09 11:26:00;;;;;;;0.60;0.60;;;8.90;99.90;;;;;;5066797;28;20200;-51
2023/01/09 11:28:28;;;;;;;0.70;0.60;;;9.00;99.90;;;;;;5073577;28;20199;-51
2023/01/09 11:30:58;;;;;;;0.77;0.70;;;9.00;99.90;;;;;;5066185;28;20204;-51
2023/01/09 11:33:28;;;;;;;0.97;0.97;;;9.00;99.90;;;;;;5073643;28;20729;-50
2023/01/09 11:36:02;;;;;;;0.70;0.40;;;9.00;99.90;;;;;;5072593;28;20230;-51
2023/01/09 11:38:33;;;;;;;1.77;0.83;;;8.90;99.90;;;;;;5070054;28;20291;-51
2023/01/09 11:41:01;;;;;;;0.80;0.80;;;8.90;99.90;;;;;;5072473;28;20229;-51
2023/01/09 11:43:36;;;;;;;1.13;0.40;;;8.80;99.90;;;;;;5071908;28;20227;-51
2023/01/09 11:46:05;;;;;;;1.00;0.60;;;8.80;99.90;;;;;;5072780;28;20761;-51
2023/01/09 11:48:38;;;;;;;0.80;0.40;;;8.80;99.90;;;;;;5074143;28;20293;-51
2023/01/09 11:51:16;;;;;;;0.70;0.30;;;8.90;99.90;;;;;;5073200;28;20258;-51
2023/01/09 11:54:06;;;;;;;0.67;0.40;;;9.00;99.90;;;;;;5091596;28;20257;-51
2023/01/09 11:56:33;;;;;;;1.55;0.43;;;8.90;99.90;;;;;;5093292;22;20507;-53
2023/01/09 11:59:00;;;;;;;1.23;1.20;;;8.90;99.90;;;;;;5070192;28;20202;-53
2023/01/09 12:01:53;;;;;;;1.13;0.40;;;8.80;99.90;;;;;;5079287;28;20222;-53
2023/01/09 12:04:28;;;;;;;0.50;0.50;;;8.70;99.90;;;;;;5066343;28;20219;-54
2023/01/09 12:07:29;;;;;;;0.73;0.37;;;8.60;99.90;;;;;;5072362;28;20661;-53
2023/01/09 12:10:05;;;;;;;0.30;0.30;;;8.60;99.90;;;;;;5071090;28;20195;-53
2023/01/09 12:12:40;;;;;;;0.30;0.30;;;8.60;99.90;;;;;;5071200;28;20207;-54
2023/01/09 12:15:21;;;;;;;0.60;0.40;;;8.60;99.90;;;;;;5072228;28;20222;-52
2023/01/09 12:18:09;;;;;;;0.40;0.30;;;8.70;99.90;;;;;;5072011;28;20690;-53
2023/01/09 12:20:54;;;;;;;0.20;0.20;;;8.70;99.90;;;;;;5069220;28;20565;-53
2023/01/09 12:23:30;;;;;;;1.17;0.20;;;8.90;99.90;;;;;;5071875;28;20293;-53
2023/01/09 12:26:12;;;;;;;0.97;0.30;;;8.90;99.90;;;;;;5072028;28;20218;-53
2023/01/09 12:29:25;;;;;;;0.23;0.23;;;9.10;99.90;;;;;;5072101;28;20206;-53
2023/01/09 12:32:13;;;;;;;2.10;0.37;;;9.10;99.90;;;;;;5048543;28;20222;-53
2023/01/09 12:34:52;;;;;;;1.00;0.23;;;9.10;99.90;;;;;;5071666;28;20228;-54
2023/01/09 12:37:36;;;;;;;0.97;0.30;;;9.00;99.90;;;;;;5071663;28;20573;-53
2023/01/09 12:40:17;;;;;;;0.83;0.70;;;9.00;99.90;;;;;;5071683;28;20201;-52
2023/01/09 12:42:53;;;;;;;0.40;0.40;;;9.00;99.90;;;;;;5071260;28;20210;-53
2023/01/09 12:45:38;;;;;;;1.47;0.40;;;9.00;99.90;;;;;;5071904;28;20226;-53
2023/01/09 12:48:15;;;;;;;0.50;0.50;;;9.00;99.90;;;;;;5071258;28;20217;-52
2023/01/09 12:51:10;;;;;;;0.93;0.37;;;8.90;99.90;;;;;;5066752;28;20195;-53
2023/01/09 12:53:43;;;;;;;1.83;0.50;;;8.80;99.90;;;;;;5057808;28;20631;-55
2023/01/09 12:56:14;;;;;;;0.50;0.47;;;9.00;99.90;;;;;;5063511;28;20322;-53
2023/01/09 12:58:47;;;;;;;0.83;0.30;;;8.90;99.90;;;;;;5068959;28;20235;-53
2023/01/09 13:01:20;;;;;;;1.53;0.40;;;8.80;99.90;;;;;;5071206;28;20274;-53
2023/01/09 13:03:53;;;;;;;1.10;0.20;;;8.70;99.90;;;;;;5068642;28;20199;-54
2023/01/09 13:06:23;;;;;;;0.73;0.30;;;8.60;99.90;;;;;;5071138;28;20296;-54
2023/01/09 13:08:57;;;;;;;0.57;0.50;;;8.80;99.90;;;;;;5071494;28;20205;-53
2023/01/09 13:11:28;;;;;;;0.83;0.20;;;8.80;99.90;;;;;;5067285;28;20199;-52
2023/01/09 13:14:01;;;;;;;0.10;0.10;;;8.60;99.90;;;;;;5071166;28;20198;-52
2023/01/09 13:16:33;;;;;;;0.30;0.20;;;8.40;99.90;;;;;;5070926;28;20770;-52
2023/01/09 13:19:07;;;;;;;0.10;0.10;;;8.20;99.90;;;;;;5064670;28;20198;-53
2023/01/09 13:21:35;;;;;;;0.10;0.10;;;8.00;99.90;;;;;;5065461;28;20309;-52
2023/01/09 13:24:10;;;;;;;0.07;0.07;;;7.80;99.90;;;;;;5069804;28;20248;-53
2023/01/09 13:26:42;;;;;;;0.10;0.00;;;7.70;99.90;;;;;;5062177;28;20223;-52